Time;durP1;ratioP1;P1;durP2;ratioP2;P2;SDS_P1;SDS_P2;PMS_P1;PMS_P2;Temp;Humidity;BMP_temperature;BMP_pressure;BME280_temperature;BME280_humidity;BME280_pressure;Samples;Min_cycle;Max_cycle;Signal;HPM_P1;HPM_P2
2021/08/29 07:25:42;;;;;;;1.70;1.37;;;;;;;;;;6234777;22;1283621;-74
2021/08/29 07:28:08;;;;;;;1.80;1.70;;;;;;;;;;6340720;22;20222;-74
2021/08/29 07:30:34;;;;;;;1.37;1.27;;;;;;;;;;6370517;22;20689;-74
2021/08/29 07:33:00;;;;;;;1.40;1.30;;;;;;;;;;6370390;22;20444;-74
2021/08/29 07:35:26;;;;;;;1.20;1.10;;;;;;;;;;6370630;22;20391;-74
2021/08/29 07:37:52;;;;;;;1.30;1.20;;;;;;;;;;6370284;22;20522;-74
2021/08/29 07:40:19;;;;;;;1.30;1.20;;;;;;;;;;6369639;22;20382;-74
2021/08/29 07:42:46;;;;;;;1.43;1.33;;;;;;;;;;6370454;22;20904;-74
2021/08/29 07:45:12;;;;;;;1.57;1.47;;;;;;;;;;6342406;22;20425;-74
2021/08/29 07:47:38;;;;;;;1.73;1.60;;;;;;;;;;6370738;22;20374;-74
2021/08/29 07:50:05;;;;;;;1.63;1.47;;;;;;;;;;6370526;22;20371;-73
2021/08/29 07:52:31;;;;;;;2.17;1.53;;;;;;;;;;6370524;22;20402;-74
2021/08/29 07:54:57;;;;;;;1.47;1.33;;;;;;;;;;6370250;22;20364;-74
2021/08/29 07:57:23;;;;;;;1.20;1.10;;;;;;;;;;6369208;22;20469;-75
2021/08/29 07:59:49;;;;;;;1.20;1.10;;;;;;;;;;6370375;22;20386;-75
2021/08/29 08:02:16;;;;;;;0.93;0.93;;;;;;;;;;6381113;22;20378;-74
2021/08/29 08:04:42;;;;;;;1.10;1.10;;;;;;;;;;6369962;22;20428;-74
2021/08/29 08:07:08;;;;;;;0.97;0.93;;;;;;;;;;6380368;22;20359;-74
2021/08/29 08:09:34;;;;;;;0.80;0.80;;;;;;;;;;6380674;22;20379;-74
2021/08/29 08:12:00;;;;;;;1.20;1.10;;;;;;;;;;6369323;22;20894;-73
2021/08/29 08:14:26;;;;;;;0.90;0.90;;;;;;;;;;6369894;22;20400;-74
2021/08/29 08:16:52;;;;;;;1.13;1.03;;;;;;;;;;6369623;22;20445;-74
2021/08/29 08:19:18;;;;;;;3.60;0.93;;;;;;;;;;6370077;22;20371;-74
2021/08/29 08:21:44;;;;;;;1.00;1.00;;;;;;;;;;6369911;22;20458;-74
2021/08/29 08:24:10;;;;;;;1.10;1.00;;;;;;;;;;6381034;22;20364;-74
2021/08/29 08:26:36;;;;;;;0.97;0.97;;;;;;;;;;6368833;22;20434;-75
2021/08/29 08:29:02;;;;;;;1.20;0.77;;;;;;;;;;6370301;22;20367;-75
2021/08/29 08:31:28;;;;;;;1.30;0.90;;;;;;;;;;6380813;22;20375;-74
2021/08/29 08:33:54;;;;;;;1.63;1.33;;;;;;;;;;6369836;22;20773;-75
2021/08/29 08:36:20;;;;;;;1.30;0.80;;;;;;;;;;6369547;22;20363;-75
2021/08/29 08:38:46;;;;;;;1.20;1.00;;;;;;;;;;6381034;22;20407;-75
2021/08/29 08:41:12;;;;;;;0.73;0.73;;;;;;;;;;6368338;22;20850;-75
2021/08/29 08:43:47;;;;;;;0.80;0.80;;;;;;;;;;6378397;22;20674;-73
2021/08/29 08:46:24;;;;;;;0.53;0.50;;;;;;;;;;6368951;22;20426;-74
2021/08/29 08:48:51;;;;;;;0.80;0.80;;;;;;;;;;6379479;22;20435;-74
2021/08/29 08:51:18;;;;;;;0.87;0.63;;;;;;;;;;6368497;22;20359;-74
2021/08/29 08:53:44;;;;;;;0.60;0.57;;;;;;;;;;6368872;22;20367;-71
2021/08/29 08:56:10;;;;;;;0.67;0.60;;;;;;;;;;6367857;22;20439;-73
2021/08/29 08:58:40;;;;;;;0.70;0.60;;;;;;;;;;6341262;22;20434;-73
2021/08/29 09:01:07;;;;;;;1.60;0.80;;;;;;;;;;6368493;22;20450;-74
2021/08/29 09:03:35;;;;;;;0.80;0.80;;;;;;;;;;6368530;22;20412;-75
2021/08/29 09:06:02;;;;;;;1.27;1.17;;;;;;;;;;6368295;22;20476;-75
2021/08/29 09:08:28;;;;;;;1.77;1.00;;;;;;;;;;6368668;22;20360;-75
2021/08/29 09:10:54;;;;;;;0.97;0.97;;;;;;;;;;6367469;22;20472;-75
2021/08/29 09:13:20;;;;;;;2.00;1.80;;;;;;;;;;6368376;22;20359;-75
2021/08/29 09:15:46;;;;;;;2.10;1.33;;;;;;;;;;6368481;22;20378;-76
2021/08/29 09:18:12;;;;;;;1.50;1.37;;;;;;;;;;6370099;22;20427;-76
2021/08/29 09:20:39;;;;;;;2.57;2.37;;;;;;;;;;6370634;22;20399;-76
2021/08/29 09:23:23;;;;;;;2.43;2.23;;;;;;;;;;6381152;22;20417;-76
2021/08/29 09:25:53;;;;;;;2.47;2.27;;;;;;;;;;6369630;22;20426;-76
2021/08/29 09:28:24;;;;;;;2.57;2.37;;;;;;;;;;6381654;22;20410;-75
2021/08/29 09:30:50;;;;;;;1.70;1.60;;;;;;;;;;6342607;22;20386;-75
2021/08/29 09:33:16;;;;;;;3.50;2.07;;;;;;;;;;6370813;22;20757;-75
2021/08/29 09:35:42;;;;;;;2.50;2.30;;;;;;;;;;6342304;22;20401;-74
2021/08/29 09:38:12;;;;;;;1.97;1.77;;;;;;;;;;6370658;22;20505;-73
2021/08/29 09:40:38;;;;;;;2.23;2.13;;;;;;;;;;6369515;22;20456;-74
2021/08/29 09:43:06;;;;;;;2.30;2.10;;;;;;;;;;6371032;22;20454;-74
2021/08/29 09:45:32;;;;;;;2.40;2.20;;;;;;;;;;6370334;22;20368;-74
2021/08/29 09:48:08;;;;;;;2.30;2.20;;;;;;;;;;6370569;22;20696;-74
2021/08/29 09:50:36;;;;;;;2.40;2.20;;;;;;;;;;6370429;22;20390;-74
2021/08/29 09:53:06;;;;;;;2.70;2.50;;;;;;;;;;6370580;22;20490;-74
2021/08/29 09:55:37;;;;;;;2.20;2.10;;;;;;;;;;6369539;22;20429;-74
2021/08/29 09:58:22;;;;;;;3.10;2.80;;;;;;;;;;6381471;22;20742;-74
2021/08/29 10:01:11;;;;;;;2.70;2.50;;;;;;;;;;6370344;22;20371;-74
2021/08/29 10:03:37;;;;;;;2.47;2.23;;;;;;;;;;6381254;22;20405;-74
2021/08/29 10:06:14;;;;;;;3.43;3.03;;;;;;;;;;6380973;22;20370;-74
2021/08/29 10:08:41;;;;;;;3.07;2.77;;;;;;;;;;6370398;22;20420;-74
2021/08/29 10:11:07;;;;;;;2.83;2.63;;;;;;;;;;6364764;22;20403;-74
2021/08/29 10:13:34;;;;;;;3.50;3.20;;;;;;;;;;6370129;22;20398;-74
2021/08/29 10:16:00;;;;;;;3.20;2.90;;;;;;;;;;6369479;22;20375;-72
2021/08/29 10:18:26;;;;;;;3.63;3.10;;;;;;;;;;6370166;22;20423;-72
2021/08/29 10:20:52;;;;;;;3.40;3.20;;;;;;;;;;6369724;22;20402;-73
2021/08/29 10:23:19;;;;;;;2.67;2.47;;;;;;;;;;6370259;22;20405;-72
2021/08/29 10:25:45;;;;;;;3.40;2.83;;;;;;;;;;6368941;22;20549;-72
2021/08/29 10:28:14;;;;;;;4.57;2.60;;;;;;;;;;6370054;22;20453;-73
2021/08/29 10:30:41;;;;;;;3.73;2.30;;;;;;;;;;6369700;22;20393;-74
2021/08/29 10:33:09;;;;;;;2.90;2.60;;;;;;;;;;6380771;22;20387;-72
2021/08/29 10:35:35;;;;;;;2.50;2.33;;;;;;;;;;6369718;22;20371;-73
2021/08/29 10:38:01;;;;;;;1.97;1.87;;;;;;;;;;6369685;22;20590;-73
2021/08/29 10:40:28;;;;;;;2.93;2.60;;;;;;;;;;6368842;22;20378;-73
2021/08/29 10:42:56;;;;;;;2.30;2.20;;;;;;;;;;6369852;22;20410;-74
2021/08/29 10:45:22;;;;;;;2.60;2.40;;;;;;;;;;6341734;22;20470;-74
2021/08/29 10:47:48;;;;;;;2.73;2.53;;;;;;;;;;6370288;22;20418;-74
2021/08/29 10:50:16;;;;;;;4.30;2.63;;;;;;;;;;6380940;22;20386;-73
2021/08/29 10:52:42;;;;;;;2.83;2.63;;;;;;;;;;6342129;22;20406;-73
2021/08/29 10:55:10;;;;;;;2.90;2.70;;;;;;;;;;6341566;22;20398;-74
2021/08/29 10:57:38;;;;;;;2.60;2.50;;;;;;;;;;6369469;22;20426;-73
2021/08/29 11:00:08;;;;;;;2.57;2.37;;;;;;;;;;6369998;22;20428;-74
2021/08/29 11:02:36;;;;;;;3.23;2.47;;;;;;;;;;6370049;22;20363;-74
2021/08/29 11:05:02;;;;;;;6.67;3.47;;;;;;;;;;6370109;22;20376;-73
2021/08/29 11:07:38;;;;;;;2.30;2.20;;;;;;;;;;6369737;22;20376;-72
2021/08/29 11:10:05;;;;;;;2.63;2.43;;;;;;;;;;6380396;22;20398;-74
2021/08/29 11:12:31;;;;;;;3.00;2.80;;;;;;;;;;6368833;22;20374;-74
2021/08/29 11:15:01;;;;;;;3.20;2.37;;;;;;;;;;6380373;22;20367;-73
2021/08/29 11:17:31;;;;;;;2.40;2.17;;;;;;;;;;6369359;22;21001;-74
2021/08/29 11:20:03;;;;;;;2.47;2.30;;;;;;;;;;6369641;22;20359;-74
2021/08/29 11:22:42;;;;;;;2.30;2.20;;;;;;;;;;6380512;22;20383;-74
2021/08/29 11:25:13;;;;;;;2.43;2.10;;;;;;;;;;6368801;22;20801;-75
2021/08/29 11:27:44;;;;;;;2.10;2.00;;;;;;;;;;6369167;22;20436;-73
2021/08/29 11:30:14;;;;;;;2.10;1.97;;;;;;;;;;6336411;22;20726;-72
2021/08/29 11:32:51;;;;;;;2.40;2.20;;;;;;;;;;6366913;22;20378;-74
2021/08/29 11:35:23;;;;;;;2.80;2.60;;;;;;;;;;6367465;22;20363;-74
2021/08/29 11:38:04;;;;;;;2.40;2.20;;;;;;;;;;6369623;22;20842;-74
2021/08/29 11:40:48;;;;;;;2.70;2.50;;;;;;;;;;6368677;22;20732;-73
2021/08/29 11:43:15;;;;;;;2.37;2.17;;;;;;;;;;6341736;22;20410;-74
2021/08/29 11:45:41;;;;;;;2.07;1.93;;;;;;;;;;6341327;22;20391;-70
2021/08/29 11:48:08;;;;;;;2.30;2.10;;;;;;;;;;6369435;22;20453;-73
2021/08/29 11:50:34;;;;;;;2.27;2.17;;;;;;;;;;6341067;22;20391;-73
2021/08/29 11:53:00;;;;;;;2.73;2.53;;;;;;;;;;6369228;22;20822;-73
2021/08/29 11:55:26;;;;;;;2.10;2.00;;;;;;;;;;6368231;22;20733;-74
2021/08/29 11:57:53;;;;;;;2.40;2.30;;;;;;;;;;6368886;22;20434;-74
2021/08/29 12:00:20;;;;;;;1.97;1.87;;;;;;;;;;6368898;22;20368;-73
2021/08/29 12:02:47;;;;;;;2.40;2.20;;;;;;;;;;6369206;22;20379;-74
2021/08/29 12:05:15;;;;;;;2.70;2.50;;;;;;;;;;6369068;22;20734;-73
2021/08/29 12:08:00;;;;;;;2.83;2.50;;;;;;;;;;6369234;22;20371;-72
2021/08/29 12:10:26;;;;;;;3.23;2.93;;;;;;;;;;6367698;22;21198;-74
2021/08/29 12:12:53;;;;;;;2.20;2.00;;;;;;;;;;6368829;22;20382;-73
2021/08/29 12:15:19;;;;;;;2.47;2.27;;;;;;;;;;6340674;22;20414;-73
2021/08/29 12:17:46;;;;;;;2.03;1.93;;;;;;;;;;6369057;22;20426;-74
2021/08/29 12:20:12;;;;;;;2.43;2.23;;;;;;;;;;6368788;22;20402;-74
2021/08/29 12:22:39;;;;;;;2.07;1.97;;;;;;;;;;6380035;22;20755;-73
2021/08/29 12:25:05;;;;;;;2.00;1.90;;;;;;;;;;6369059;22;20446;-73
2021/08/29 12:27:31;;;;;;;2.33;2.13;;;;;;;;;;6367807;22;20391;-73
2021/08/29 12:29:58;;;;;;;2.33;2.13;;;;;;;;;;6368441;22;20395;-73
2021/08/29 12:32:25;;;;;;;1.90;1.80;;;;;;;;;;6368241;22;20375;-73
2021/08/29 12:34:56;;;;;;;2.23;2.03;;;;;;;;;;6379339;22;20375;-73
2021/08/29 12:37:22;;;;;;;3.73;2.07;;;;;;;;;;6367975;22;20429;-74
2021/08/29 12:39:57;;;;;;;2.37;2.17;;;;;;;;;;6368792;22;20397;-74
2021/08/29 12:42:25;;;;;;;2.80;2.60;;;;;;;;;;6339509;22;20841;-74
2021/08/29 12:44:51;;;;;;;2.77;2.57;;;;;;;;;;6340862;22;20397;-74
2021/08/29 12:47:18;;;;;;;2.83;2.50;;;;;;;;;;6368578;22;20371;-74
2021/08/29 12:49:45;;;;;;;2.70;2.50;;;;;;;;;;6368275;22;20822;-74
2021/08/29 12:52:19;;;;;;;2.30;2.10;;;;;;;;;;6339208;22;20398;-74
2021/08/29 12:54:45;;;;;;;2.10;2.00;;;;;;;;;;6368063;22;20718;-75
2021/08/29 12:57:11;;;;;;;2.63;2.10;;;;;;;;;;6366667;22;20476;-74
2021/08/29 12:59:37;;;;;;;2.10;1.90;;;;;;;;;;6367548;22;20514;-74
2021/08/29 13:02:04;;;;;;;2.57;2.37;;;;;;;;;;6367469;22;20363;-73
2021/08/29 13:04:31;;;;;;;2.60;2.40;;;;;;;;;;6367754;22;20359;-73
2021/08/29 13:07:07;;;;;;;2.63;2.43;;;;;;;;;;6367993;22;21109;-73
2021/08/29 13:09:34;;;;;;;3.10;2.80;;;;;;;;;;6379027;22;20410;-74
2021/08/29 13:12:08;;;;;;;2.37;2.17;;;;;;;;;;6338967;22;20391;-73
2021/08/29 13:14:36;;;;;;;2.33;2.13;;;;;;;;;;6378944;22;20375;-72
2021/08/29 13:17:18;;;;;;;2.50;2.30;;;;;;;;;;6367640;22;20418;-73
2021/08/29 13:19:55;;;;;;;3.00;2.80;;;;;;;;;;6368941;22;20363;-72
2021/08/29 13:22:25;;;;;;;2.50;2.30;;;;;;;;;;6367662;22;20390;-73
2021/08/29 13:24:51;;;;;;;2.20;2.03;;;;;;;;;;6366894;22;20418;-74
2021/08/29 13:27:18;;;;;;;2.83;1.97;;;;;;;;;;6367150;22;20899;-74
2021/08/29 13:29:44;;;;;;;2.67;2.47;;;;;;;;;;6378419;22;20467;-73
2021/08/29 13:32:10;;;;;;;3.00;2.70;;;;;;;;;;6367292;22;20371;-74
2021/08/29 13:34:36;;;;;;;2.87;2.50;;;;;;;;;;6367974;22;20469;-73
2021/08/29 13:37:03;;;;;;;2.60;2.27;;;;;;;;;;6366739;22;20419;-76
2021/08/29 13:39:30;;;;;;;2.47;2.27;;;;;;;;;;6340734;22;20470;-74
2021/08/29 13:42:14;;;;;;;3.97;2.87;;;;;;;;;;6367497;22;20387;-74
2021/08/29 13:44:48;;;;;;;3.40;3.10;;;;;;;;;;6367777;22;20367;-74
2021/08/29 13:47:17;;;;;;;3.97;2.17;;;;;;;;;;6367836;22;20438;-73
2021/08/29 13:49:43;;;;;;;2.37;2.10;;;;;;;;;;6368085;22;20399;-74
2021/08/29 13:52:09;;;;;;;2.30;2.10;;;;;;;;;;6367468;22;20555;-73
2021/08/29 13:54:35;;;;;;;3.50;2.63;;;;;;;;;;6368228;22;20830;-74
2021/08/29 13:57:01;;;;;;;2.10;1.90;;;;;;;;;;6367536;22;20467;-74
2021/08/29 13:59:27;;;;;;;2.47;2.03;;;;;;;;;;6367632;22;20387;-74
2021/08/29 14:01:53;;;;;;;3.50;2.03;;;;;;;;;;6367578;22;20686;-74
2021/08/29 14:04:19;;;;;;;1.80;1.70;;;;;;;;;;6369734;22;20382;-74
2021/08/29 14:06:45;;;;;;;1.67;1.57;;;;;;;;;;6369554;22;20489;-74
2021/08/29 14:09:11;;;;;;;2.13;1.93;;;;;;;;;;6370372;22;20386;-74
2021/08/29 14:11:37;;;;;;;3.00;1.80;;;;;;;;;;6340880;22;20406;-75
2021/08/29 14:14:03;;;;;;;2.27;1.57;;;;;;;;;;6370244;22;20391;-75
2021/08/29 14:16:29;;;;;;;2.27;1.73;;;;;;;;;;6369941;22;20421;-75
2021/08/29 14:18:55;;;;;;;2.23;1.67;;;;;;;;;;6370059;22;20857;-74
2021/08/29 14:21:21;;;;;;;2.33;1.70;;;;;;;;;;6341822;22;20416;-75
2021/08/29 14:23:47;;;;;;;1.73;1.63;;;;;;;;;;6370593;22;20372;-75
2021/08/29 14:26:16;;;;;;;2.40;1.90;;;;;;;;;;6369151;22;20597;-75
2021/08/29 14:28:42;;;;;;;2.17;1.70;;;;;;;;;;6369866;22;20383;-74
2021/08/29 14:31:07;;;;;;;2.73;1.60;;;;;;;;;;6370033;22;20816;-74
2021/08/29 14:33:33;;;;;;;1.70;1.60;;;;;;;;;;6370111;22;20391;-76
2021/08/29 14:36:00;;;;;;;1.50;1.40;;;;;;;;;;6370065;22;20866;-78
2021/08/29 14:38:26;;;;;;;1.37;1.27;;;;;;;;;;6369962;22;20726;-77
2021/08/29 14:40:51;;;;;;;1.80;1.60;;;;;;;;;;6368919;22;20371;-74
2021/08/29 14:43:17;;;;;;;1.70;1.40;;;;;;;;;;6369886;22;20378;-74
2021/08/29 14:45:43;;;;;;;2.80;2.07;;;;;;;;;;6369637;22;20364;-74
2021/08/29 14:48:09;;;;;;;1.20;1.10;;;;;;;;;;6369976;22;20386;-75
2021/08/29 14:50:38;;;;;;;2.17;1.97;;;;;;;;;;6341519;22;20402;-77
2021/08/29 14:53:04;;;;;;;1.70;1.27;;;;;;;;;;6369783;22;20371;-75
2021/08/29 14:55:30;;;;;;;2.30;1.80;;;;;;;;;;6340518;22;20448;-75
2021/08/29 14:57:58;;;;;;;1.73;1.63;;;;;;;;;;6369786;22;20431;-75
2021/08/29 15:00:25;;;;;;;1.60;1.50;;;;;;;;;;6351200;22;20418;-76
2021/08/29 15:02:51;;;;;;;2.10;1.90;;;;;;;;;;6369871;22;20450;-75
2021/08/29 15:05:17;;;;;;;2.47;2.27;;;;;;;;;;6369555;22;20375;-74
2021/08/29 15:07:43;;;;;;;2.97;2.43;;;;;;;;;;6341562;22;20477;-74
2021/08/29 15:10:09;;;;;;;3.07;2.40;;;;;;;;;;6369047;22;20399;-76
2021/08/29 15:12:35;;;;;;;2.00;1.90;;;;;;;;;;6369061;22;20413;-75
2021/08/29 15:15:01;;;;;;;1.40;1.27;;;;;;;;;;6369220;22;20371;-76
2021/08/29 15:17:28;;;;;;;1.87;1.77;;;;;;;;;;6369629;22;20457;-76
2021/08/29 15:19:54;;;;;;;1.80;1.70;;;;;;;;;;6369414;22;20466;-75
2021/08/29 15:22:20;;;;;;;2.40;2.20;;;;;;;;;;6368572;22;20861;-75
2021/08/29 15:24:46;;;;;;;2.83;1.83;;;;;;;;;;6368946;22;20710;-75
2021/08/29 15:27:12;;;;;;;1.77;1.63;;;;;;;;;;6367798;22;20913;-75
2021/08/29 15:29:41;;;;;;;1.83;1.53;;;;;;;;;;6368994;22;20440;-75
2021/08/29 15:32:07;;;;;;;2.10;1.90;;;;;;;;;;6341482;22;20470;-75
2021/08/29 15:34:33;;;;;;;1.90;1.77;;;;;;;;;;6369497;22;20448;-76
2021/08/29 15:36:59;;;;;;;1.50;1.40;;;;;;;;;;6369075;22;20776;-76
2021/08/29 15:39:25;;;;;;;1.77;1.67;;;;;;;;;;6369387;22;20403;-74
2021/08/29 15:41:55;;;;;;;1.57;1.10;;;;;;;;;;6368367;22;20367;-76
2021/08/29 15:44:25;;;;;;;2.03;1.50;;;;;;;;;;6341011;22;20435;-76
2021/08/29 15:46:51;;;;;;;2.23;1.67;;;;;;;;;;6366736;22;20380;-75
2021/08/29 15:49:17;;;;;;;1.43;1.33;;;;;;;;;;6366574;22;20368;-74
2021/08/29 15:51:44;;;;;;;2.83;1.80;;;;;;;;;;6363790;22;20679;-74
2021/08/29 15:54:10;;;;;;;2.20;2.00;;;;;;;;;;6366014;22;20462;-74
2021/08/29 15:56:36;;;;;;;2.20;2.00;;;;;;;;;;6365258;22;20403;-75
2021/08/29 15:59:02;;;;;;;2.73;2.53;;;;;;;;;;6337678;22;20402;-74
2021/08/29 16:01:28;;;;;;;3.47;2.73;;;;;;;;;;6364879;22;20372;-75
2021/08/29 16:03:54;;;;;;;3.10;2.70;;;;;;;;;;6365609;22;20391;-75
2021/08/29 16:06:20;;;;;;;2.63;1.90;;;;;;;;;;6366104;22;20375;-76
2021/08/29 16:08:48;;;;;;;3.53;3.10;;;;;;;;;;6380114;22;20394;-74
2021/08/29 16:11:15;;;;;;;3.33;3.03;;;;;;;;;;6378798;22;20418;-77
2021/08/29 16:13:41;;;;;;;3.23;2.93;;;;;;;;;;6340861;22;20409;-76
2021/08/29 16:16:07;;;;;;;2.87;2.53;;;;;;;;;;6368483;22;20502;-77
2021/08/29 16:18:33;;;;;;;3.20;3.00;;;;;;;;;;6369226;22;20421;-75
2021/08/29 16:20:59;;;;;;;4.17;3.77;;;;;;;;;;6379543;22;20383;-73
2021/08/29 16:23:25;;;;;;;3.87;3.57;;;;;;;;;;6368648;22;20383;-76
2021/08/29 16:25:51;;;;;;;6.67;6.00;;;;;;;;;;6368026;22;20513;-73
2021/08/29 16:28:17;;;;;;;5.60;4.67;;;;;;;;;;6368877;22;20403;-74
2021/08/29 16:30:43;;;;;;;5.53;3.50;;;;;;;;;;6378729;22;20387;-74
2021/08/29 16:33:09;;;;;;;3.13;2.83;;;;;;;;;;6368849;22;20898;-74
2021/08/29 16:35:35;;;;;;;6.73;3.50;;;;;;;;;;6368401;22;20371;-75
2021/08/29 16:38:01;;;;;;;3.27;2.97;;;;;;;;;;6369017;22;20896;-76
2021/08/29 16:40:27;;;;;;;3.47;2.97;;;;;;;;;;6367945;22;20380;-75
2021/08/29 16:42:53;;;;;;;3.10;2.80;;;;;;;;;;6368540;22;20398;-74
2021/08/29 16:45:19;;;;;;;3.23;2.93;;;;;;;;;;6368090;22;20758;-74
2021/08/29 16:47:46;;;;;;;3.13;2.83;;;;;;;;;;6341053;22;20399;-73
2021/08/29 16:50:12;;;;;;;3.80;2.90;;;;;;;;;;6368206;22;20913;-74
2021/08/29 16:52:39;;;;;;;4.20;3.20;;;;;;;;;;6368365;22;20379;-74
2021/08/29 16:55:06;;;;;;;3.50;3.20;;;;;;;;;;6368403;22;20390;-74
2021/08/29 16:57:31;;;;;;;3.90;3.47;;;;;;;;;;6367459;22;20438;-75
2021/08/29 16:59:59;;;;;;;3.37;2.90;;;;;;;;;;6367698;22;20376;-74
2021/08/29 17:02:25;;;;;;;3.50;3.20;;;;;;;;;;6379170;22;20398;-73
2021/08/29 17:04:51;;;;;;;3.53;3.23;;;;;;;;;;6368705;22;20852;-77
2021/08/29 17:07:17;;;;;;;3.53;3.20;;;;;;;;;;6368283;22;20424;-75
2021/08/29 17:09:43;;;;;;;3.40;3.10;;;;;;;;;;6367346;22;20462;-79
2021/08/29 17:12:10;;;;;;;4.77;3.07;;;;;;;;;;6378454;22;20450;-73
2021/08/29 17:14:36;;;;;;;5.13;3.47;;;;;;;;;;6367935;22;20391;-75
2021/08/29 17:17:02;;;;;;;3.73;3.40;;;;;;;;;;6368352;22;20450;-74
2021/08/29 17:19:28;;;;;;;3.90;3.50;;;;;;;;;;6368395;22;20376;-74
2021/08/29 17:21:54;;;;;;;3.80;3.50;;;;;;;;;;6367694;22;20367;-75
2021/08/29 17:24:20;;;;;;;4.43;4.03;;;;;;;;;;6368546;22;20775;-74
2021/08/29 17:26:46;;;;;;;3.80;3.40;;;;;;;;;;6367362;22;20427;-74
2021/08/29 17:29:12;;;;;;;4.27;3.63;;;;;;;;;;6367848;22;20375;-76
2021/08/29 17:31:38;;;;;;;3.77;3.47;;;;;;;;;;6368669;22;20688;-73
2021/08/29 17:34:04;;;;;;;4.70;4.00;;;;;;;;;;6379327;22;20409;-77
2021/08/29 17:36:30;;;;;;;4.30;3.90;;;;;;;;;;6379080;22;20398;-75
2021/08/29 17:38:57;;;;;;;4.17;3.77;;;;;;;;;;6342019;22;20391;-72
2021/08/29 17:41:23;;;;;;;4.80;4.40;;;;;;;;;;6369473;22;20830;-73
2021/08/29 17:43:49;;;;;;;4.23;3.27;;;;;;;;;;6369587;22;20464;-75
2021/08/29 17:46:15;;;;;;;3.93;3.53;;;;;;;;;;6381096;22;20681;-75
2021/08/29 17:48:41;;;;;;;3.77;3.43;;;;;;;;;;6342398;22;20399;-78
2021/08/29 17:51:07;;;;;;;4.23;3.60;;;;;;;;;;6370042;22;20371;-75
2021/08/29 17:53:33;;;;;;;3.70;3.40;;;;;;;;;;6370636;22;20836;-74
2021/08/29 17:55:59;;;;;;;4.20;3.80;;;;;;;;;;6380092;22;20386;-74
2021/08/29 17:58:25;;;;;;;4.90;4.10;;;;;;;;;;6369436;22;20434;-74
2021/08/29 18:00:53;;;;;;;4.30;3.90;;;;;;;;;;6342564;22;20391;-74
2021/08/29 18:03:19;;;;;;;4.83;4.30;;;;;;;;;;6370064;22;20398;-73
2021/08/29 18:05:45;;;;;;;3.60;3.27;;;;;;;;;;6341996;22;20445;-74
2021/08/29 18:08:11;;;;;;;4.07;3.67;;;;;;;;;;6342290;22;20395;-72
2021/08/29 18:10:37;;;;;;;5.73;3.83;;;;;;;;;;6368866;22;20390;-74
2021/08/29 18:13:03;;;;;;;3.93;3.53;;;;;;;;;;6377044;22;20414;-75
2021/08/29 18:15:30;;;;;;;5.73;4.10;;;;;;;;;;6369949;22;20363;-75
2021/08/29 18:17:56;;;;;;;5.80;3.80;;;;;;;;;;6369836;22;20419;-79
2021/08/29 18:20:21;;;;;;;4.90;3.80;;;;;;;;;;6369899;22;20374;-75
2021/08/29 18:22:48;;;;;;;3.87;3.50;;;;;;;;;;6370394;22;20382;-75
2021/08/29 18:25:14;;;;;;;3.77;3.40;;;;;;;;;;6369179;22;20467;-75
2021/08/29 18:27:43;;;;;;;5.47;3.70;;;;;;;;;;6368538;22;20379;-75
2021/08/29 18:30:12;;;;;;;4.13;3.73;;;;;;;;;;6369471;22;20402;-74
2021/08/29 18:32:38;;;;;;;6.67;3.90;;;;;;;;;;6341985;22;20405;-74
2021/08/29 18:35:05;;;;;;;4.37;3.60;;;;;;;;;;6369842;22;20409;-74
2021/08/29 18:37:31;;;;;;;3.50;3.20;;;;;;;;;;6369491;22;20577;-73
2021/08/29 18:39:57;;;;;;;4.40;4.00;;;;;;;;;;6369645;22;20363;-74
2021/08/29 18:42:23;;;;;;;3.67;3.33;;;;;;;;;;6340788;22;20398;-76
2021/08/29 18:44:49;;;;;;;4.33;3.93;;;;;;;;;;6341458;22;20850;-75
2021/08/29 18:47:15;;;;;;;4.13;3.70;;;;;;;;;;6369115;22;20363;-75
2021/08/29 18:49:41;;;;;;;4.23;3.80;;;;;;;;;;6379896;22;20450;-75
2021/08/29 18:52:07;;;;;;;3.87;2.97;;;;;;;;;;6379962;22;20695;-75
2021/08/29 18:54:33;;;;;;;3.90;3.50;;;;;;;;;;6369592;22;20370;-75
2021/08/29 18:57:00;;;;;;;3.13;2.53;;;;;;;;;;6368413;22;20418;-75
2021/08/29 18:59:26;;;;;;;4.43;3.73;;;;;;;;;;6371046;22;20469;-75
2021/08/29 19:01:55;;;;;;;4.23;3.83;;;;;;;;;;6369467;22;20363;-75
2021/08/29 19:04:21;;;;;;;4.87;3.80;;;;;;;;;;6341248;22;20410;-74
2021/08/29 19:06:47;;;;;;;4.83;4.20;;;;;;;;;;6367035;22;20368;-77
2021/08/29 19:09:13;;;;;;;3.67;3.37;;;;;;;;;;6369210;22;20382;-77
2021/08/29 19:11:40;;;;;;;4.13;3.27;;;;;;;;;;6368542;22;20466;-77
2021/08/29 19:14:07;;;;;;;4.40;3.40;;;;;;;;;;6369450;22;20382;-75
2021/08/29 19:16:33;;;;;;;3.40;2.87;;;;;;;;;;6368772;22;20741;-74
2021/08/29 19:18:59;;;;;;;4.97;4.17;;;;;;;;;;6369554;22;20375;-76
2021/08/29 19:21:25;;;;;;;3.90;3.50;;;;;;;;;;6378953;22;20391;-75
2021/08/29 19:23:52;;;;;;;4.30;3.80;;;;;;;;;;6368965;22;20404;-74
2021/08/29 19:26:18;;;;;;;3.50;3.20;;;;;;;;;;6368427;22;20794;-73
2021/08/29 19:28:44;;;;;;;3.63;3.33;;;;;;;;;;6368900;22;20489;-73
2021/08/29 19:31:11;;;;;;;4.10;3.70;;;;;;;;;;6369056;22;20383;-73
2021/08/29 19:33:41;;;;;;;4.97;4.17;;;;;;;;;;6340702;22;20475;-75
2021/08/29 19:36:08;;;;;;;3.73;3.40;;;;;;;;;;6341524;22;20394;-74
2021/08/29 19:38:34;;;;;;;4.07;3.70;;;;;;;;;;6370126;22;20514;-74
2021/08/29 19:41:01;;;;;;;4.30;3.50;;;;;;;;;;6369527;22;20809;-75
2021/08/29 19:43:27;;;;;;;3.80;3.23;;;;;;;;;;6370205;22;20387;-74
2021/08/29 19:45:53;;;;;;;4.87;3.40;;;;;;;;;;6370147;22;20884;-74
2021/08/29 19:48:19;;;;;;;3.37;3.03;;;;;;;;;;6370320;22;20468;-75
2021/08/29 19:50:45;;;;;;;3.73;3.30;;;;;;;;;;6369049;22;20774;-75
2021/08/29 19:53:11;;;;;;;4.00;3.60;;;;;;;;;;6370157;22;20380;-76
2021/08/29 19:55:37;;;;;;;3.50;3.20;;;;;;;;;;6362180;22;20441;-78
2021/08/29 19:58:03;;;;;;;3.77;2.63;;;;;;;;;;6342163;22;20933;-77
2021/08/29 20:00:29;;;;;;;3.87;3.57;;;;;;;;;;6369839;22;20385;-77
2021/08/29 20:02:55;;;;;;;3.80;3.50;;;;;;;;;;6370398;22;20696;-75
2021/08/29 20:05:21;;;;;;;4.07;3.70;;;;;;;;;;6339527;22;20390;-73
2021/08/29 20:07:47;;;;;;;4.30;3.90;;;;;;;;;;6370212;22;20368;-75
2021/08/29 20:10:13;;;;;;;3.97;3.40;;;;;;;;;;6369342;22;20403;-75
2021/08/29 20:12:39;;;;;;;4.43;3.83;;;;;;;;;;6369536;22;20880;-74
2021/08/29 20:15:06;;;;;;;4.77;4.27;;;;;;;;;;6369945;22;20466;-74
2021/08/29 20:17:32;;;;;;;4.77;4.00;;;;;;;;;;6369909;22;20426;-73
2021/08/29 20:19:58;;;;;;;4.63;4.23;;;;;;;;;;6341654;22;20447;-74
2021/08/29 20:22:24;;;;;;;4.13;3.73;;;;;;;;;;6369761;22;20371;-74
2021/08/29 20:24:50;;;;;;;4.33;3.77;;;;;;;;;;6369891;22;20388;-74
2021/08/29 20:27:16;;;;;;;4.67;4.13;;;;;;;;;;6340729;22;20472;-75
2021/08/29 20:29:42;;;;;;;5.17;4.67;;;;;;;;;;6369866;22;20383;-75
2021/08/29 20:32:08;;;;;;;4.50;4.10;;;;;;;;;;6369384;22;20417;-76
2021/08/29 20:34:34;;;;;;;4.90;4.47;;;;;;;;;;6369605;22;20367;-76
2021/08/29 20:37:00;;;;;;;4.50;4.10;;;;;;;;;;6341793;22;20429;-75
2021/08/29 20:39:26;;;;;;;5.77;4.40;;;;;;;;;;6370254;22;20881;-75
2021/08/29 20:41:52;;;;;;;4.00;3.70;;;;;;;;;;6368890;22;20386;-75
2021/08/29 20:44:18;;;;;;;3.77;3.47;;;;;;;;;;6341025;22;20406;-74
2021/08/29 20:46:44;;;;;;;4.70;4.30;;;;;;;;;;6368680;22;20462;-74
2021/08/29 20:49:11;;;;;;;4.60;4.20;;;;;;;;;;6369140;22;20371;-73
2021/08/29 20:51:38;;;;;;;4.00;3.60;;;;;;;;;;6369671;22;20826;-75
2021/08/29 20:54:05;;;;;;;5.23;4.13;;;;;;;;;;6380673;22;20749;-74
2021/08/29 20:56:31;;;;;;;4.90;3.43;;;;;;;;;;6368833;22;20442;-74
2021/08/29 20:58:58;;;;;;;3.30;3.00;;;;;;;;;;6368946;22;20430;-75
2021/08/29 21:01:27;;;;;;;3.57;3.27;;;;;;;;;;6380205;22;20459;-74
2021/08/29 21:03:53;;;;;;;3.13;2.93;;;;;;;;;;6368332;22;20375;-73
2021/08/29 21:06:20;;;;;;;3.00;2.57;;;;;;;;;;6369506;22;20442;-74
2021/08/29 21:08:48;;;;;;;2.50;2.30;;;;;;;;;;6369682;22;20761;-73
2021/08/29 21:11:14;;;;;;;5.40;2.50;;;;;;;;;;6368686;22;20406;-73
2021/08/29 21:13:40;;;;;;;2.97;2.37;;;;;;;;;;6378637;22;20383;-73
2021/08/29 21:16:06;;;;;;;2.27;2.07;;;;;;;;;;6369521;22;20688;-74
2021/08/29 21:18:32;;;;;;;3.13;2.70;;;;;;;;;;6369524;22;20427;-73
2021/08/29 21:20:58;;;;;;;2.47;2.27;;;;;;;;;;6369299;22;20374;-75
2021/08/29 21:23:24;;;;;;;2.60;2.10;;;;;;;;;;6369646;22;20386;-74
2021/08/29 21:25:50;;;;;;;2.30;2.10;;;;;;;;;;6368418;22;20760;-74
2021/08/29 21:28:16;;;;;;;2.33;2.10;;;;;;;;;;6369612;22;20379;-74
2021/08/29 21:30:42;;;;;;;2.13;1.53;;;;;;;;;;6339932;22;20395;-74
2021/08/29 21:33:09;;;;;;;2.27;1.97;;;;;;;;;;6369728;22;20379;-74
2021/08/29 21:35:35;;;;;;;4.13;1.70;;;;;;;;;;6380013;22;20418;-74
2021/08/29 21:38:01;;;;;;;1.73;1.63;;;;;;;;;;6369060;22;20483;-73
2021/08/29 21:40:27;;;;;;;4.73;1.60;;;;;;;;;;6368493;22;20375;-74
2021/08/29 21:42:53;;;;;;;1.67;1.57;;;;;;;;;;6369396;22;20383;-74
2021/08/29 21:45:19;;;;;;;1.53;1.43;;;;;;;;;;6369164;22;20830;-75
2021/08/29 21:47:45;;;;;;;2.63;1.80;;;;;;;;;;6369468;22;20387;-73
2021/08/29 21:50:11;;;;;;;1.60;1.47;;;;;;;;;;6369340;22;20355;-74
2021/08/29 21:52:39;;;;;;;1.50;1.40;;;;;;;;;;6369351;22;20760;-76
2021/08/29 21:55:05;;;;;;;1.70;1.53;;;;;;;;;;6369349;22;20366;-74
2021/08/29 21:57:31;;;;;;;1.93;1.80;;;;;;;;;;6368624;22;20429;-73
2021/08/29 21:59:58;;;;;;;2.33;1.57;;;;;;;;;;6369094;22;20458;-75
2021/08/29 22:02:24;;;;;;;2.10;1.87;;;;;;;;;;6341512;22;20776;-75
2021/08/29 22:04:50;;;;;;;2.30;2.10;;;;;;;;;;6369419;22;20379;-73
2021/08/29 22:07:16;;;;;;;1.93;1.83;;;;;;;;;;6369058;22;20406;-75